Time;durP1;ratioP1;P1;durP2;ratioP2;P2;SDS_P1;SDS_P2;PMS_P1;PMS_P2;Temp;Humidity;BMP_temperature;BMP_pressure;BME280_temperature;BME280_humidity;BME280_pressure;Samples;Min_cycle;Max_cycle;Signal;HPM_P1;HPM_P2
2022/05/10 00:01:44;;;;;;;10.93;9.82;;;;;;;14.66;62.21;97285.34;6259660;23;20046;-79
2022/05/10 00:04:13;;;;;;;9.80;8.90;;;;;;;14.63;62.45;97283.13;6260523;23;20032;-79
2022/05/10 00:06:46;;;;;;;11.68;10.05;;;;;;;14.58;62.81;97285.50;6259704;23;20020;-79
2022/05/10 00:09:15;;;;;;;11.70;10.00;;;;;;;14.54;62.80;97285.03;6260575;23;20076;-79
2022/05/10 00:11:43;;;;;;;10.52;9.30;;;;;;;14.54;62.93;97286.84;6258864;23;20024;-78
2022/05/10 00:14:10;;;;;;;9.95;9.10;;;;;;;14.53;62.95;97288.66;6258825;23;20016;-78
2022/05/10 00:16:41;;;;;;;11.60;9.60;;;;;;;14.53;63.07;97293.09;6260220;23;20468;-79
2022/05/10 00:19:12;;;;;;;10.27;9.27;;;;;;;14.52;63.12;97286.22;6260403;23;20020;-79
2022/05/10 00:21:42;;;;;;;11.23;8.40;;;;;;;14.53;62.93;97287.84;6260033;23;20448;-79
2022/05/10 00:24:10;;;;;;;13.27;10.40;;;;;;;14.53;63.17;97288.66;6264166;23;20032;-79
2022/05/10 00:26:38;;;;;;;11.45;9.38;;;;;;;14.56;63.13;97287.50;6262538;23;20031;-78
2022/05/10 00:29:06;;;;;;;10.85;9.75;;;;;;;14.58;63.15;97283.69;6256940;23;20095;-78
2022/05/10 00:31:34;;;;;;;13.10;9.85;;;;;;;14.60;62.83;97286.91;6260043;23;20020;-79
2022/05/10 00:34:02;;;;;;;10.98;9.88;;;;;;;14.60;63.04;97280.88;6259464;23;20012;-78
2022/05/10 00:36:30;;;;;;;12.77;9.70;;;;;;;14.58;62.91;97286.31;6258798;23;20096;-79
2022/05/10 00:39:00;;;;;;;11.95;9.73;;;;;;;14.58;63.05;97280.25;6257580;23;20389;-78
2022/05/10 00:41:33;;;;;;;10.43;9.43;;;;;;;14.58;63.03;97282.88;6259063;23;20058;-79
2022/05/10 00:44:09;;;;;;;10.45;9.45;;;;;;;14.56;63.20;97285.69;6260318;23;20095;-79
2022/05/10 00:46:41;;;;;;;9.98;9.05;;;;;;;14.56;63.03;97277.00;6256895;23;20047;-79
2022/05/10 00:49:13;;;;;;;12.20;9.27;;;;;;;14.54;63.09;97282.41;6256471;23;20020;-79
2022/05/10 00:51:47;;;;;;;12.32;10.27;;;;;;;14.53;62.95;97279.97;6258233;23;20031;-79
2022/05/10 00:54:33;;;;;;;10.45;9.45;;;;;;;14.51;63.29;97284.59;6258207;23;20054;-78
2022/05/10 00:57:10;;;;;;;10.05;9.07;;;;;;;14.48;63.61;97283.19;6255135;23;20032;-79
2022/05/10 00:59:50;;;;;;;10.00;9.00;;;;;;;14.47;63.61;97283.34;6258897;23;20020;-79
2022/05/10 01:02:34;;;;;;;10.15;9.13;;;;;;;14.46;63.67;97281.75;6258020;23;20460;-79
2022/05/10 01:05:09;;;;;;;11.82;10.05;;;;;;;14.45;63.34;97286.16;6264985;23;20478;-79
2022/05/10 01:07:49;;;;;;;10.63;9.63;;;;;;;14.39;63.61;97272.00;6257666;23;20067;-78
2022/05/10 01:10:28;;;;;;;12.73;10.20;;;;;;;14.34;64.05;97274.38;6256203;23;20074;-78
2022/05/10 01:13:06;;;;;;;13.07;10.02;;;;;;;14.25;64.05;97278.13;6257279;23;20050;-80
2022/05/10 01:15:35;;;;;;;10.93;9.88;;;;;;;14.17;63.94;97271.19;6257834;23;20533;-81
2022/05/10 01:18:03;;;;;;;12.93;10.00;;;;;;;14.13;64.11;97266.53;6258283;23;20028;-81
2022/05/10 01:20:37;;;;;;;12.15;10.52;;;;;;;14.10;64.42;97272.13;6261688;23;20049;-79
2022/05/10 01:23:30;;;;;;;11.75;10.10;;;;;;;14.08;64.57;97263.63;6256707;23;20055;-78
2022/05/10 01:26:05;;;;;;;12.23;10.27;;;;;;;14.04;64.81;97257.97;6257121;23;20072;-78
2022/05/10 01:28:40;;;;;;;11.32;10.15;;;;;;;14.00;64.70;97260.13;6258739;23;20067;-78
2022/05/10 01:31:13;;;;;;;11.68;10.43;;;;;;;13.97;64.82;97254.44;6256295;23;20095;-79
2022/05/10 01:33:44;;;;;;;13.18;10.38;;;;;;;13.96;64.87;97258.88;6256855;23;20050;-79
2022/05/10 01:36:23;;;;;;;12.70;10.07;;;;;;;13.94;64.90;97258.25;6256302;23;20044;-79
2022/05/10 01:38:58;;;;;;;12.05;10.85;;;;;;;13.95;64.93;97259.06;6256181;23;20416;-79
2022/05/10 01:41:35;;;;;;;11.93;10.15;;;;;;;13.95;64.90;97259.91;6257354;23;20047;-79
2022/05/10 01:44:13;;;;;;;12.90;11.57;;;;;;;13.96;65.03;97261.50;6256788;23;20353;-79
2022/05/10 01:46:41;;;;;;;12.13;9.95;;;;;;;13.98;64.80;97250.84;6257016;23;20024;-79
2022/05/10 01:49:19;;;;;;;12.45;11.10;;;;;;;13.97;65.20;97257.91;6256741;23;20020;-79
2022/05/10 01:51:53;;;;;;;12.50;11.05;;;;;;;13.95;65.05;97246.78;6258734;23;20091;-79
2022/05/10 01:54:58;;;;;;;11.90;10.70;;;;;;;13.92;65.15;97249.75;6258198;23;20023;-79
2022/05/10 01:57:26;;;;;;;11.35;10.30;;;;;;;13.86;64.85;97249.69;6258660;23;20107;-79
2022/05/10 02:00:02;;;;;;;12.63;10.05;;;;;;;13.81;65.24;97242.38;6260498;23;20075;-79
2022/05/10 02:02:33;;;;;;;12.68;10.65;;;;;;;13.77;65.28;97235.88;6256904;23;20020;-79
2022/05/10 02:05:06;;;;;;;11.73;10.57;;;;;;;13.76;65.38;97244.75;6258306;23;20024;-79
2022/05/10 02:07:34;;;;;;;14.15;10.10;;;;;;;13.76;65.30;97242.16;6256194;23;20039;-81
2022/05/10 02:10:07;;;;;;;12.60;11.27;;;;;;;13.75;65.55;97238.72;6256236;23;20095;-81
2022/05/10 02:12:40;;;;;;;13.95;10.27;;;;;;;13.71;65.83;97232.22;6257981;23;20071;-81
2022/05/10 02:15:14;;;;;;;11.55;10.43;;;;;;;13.66;65.77;97225.91;6257416;23;20198;-81
2022/05/10 02:17:48;;;;;;;12.20;10.93;;;;;;;13.63;65.77;97234.13;6254586;23;20508;-81
2022/05/10 02:20:21;;;;;;;12.23;10.77;;;;;;;13.59;66.03;97231.06;6253308;23;20393;-81
2022/05/10 02:22:56;;;;;;;14.75;10.55;;;;;;;13.56;66.23;97227.00;6256435;23;20018;-81
2022/05/10 02:25:27;;;;;;;16.98;12.45;;;;;;;13.53;66.28;97223.94;6258841;23;20091;-80
2022/05/10 02:28:01;;;;;;;12.48;10.85;;;;;;;13.49;66.24;97228.75;6258272;23;20076;-80
2022/05/10 02:30:33;;;;;;;11.65;10.45;;;;;;;13.46;66.38;97231.72;6267844;23;20028;-81
2022/05/10 02:33:06;;;;;;;11.43;10.23;;;;;;;13.46;66.36;97236.97;6271960;22;20076;-80
2022/05/10 02:35:39;;;;;;;12.15;10.88;;;;;;;13.43;66.49;97226.88;6271753;22;20038;-81
2022/05/10 02:38:09;;;;;;;12.40;11.10;;;;;;;13.39;66.64;97221.16;6258380;23;20036;-81
2022/05/10 02:40:40;;;;;;;14.75;11.10;;;;;;;13.37;66.55;97217.91;6257859;23;20072;-81
2022/05/10 02:43:11;;;;;;;12.90;11.60;;;;;;;13.36;66.84;97218.13;6257635;23;20071;-81
2022/05/10 02:45:42;;;;;;;12.77;11.45;;;;;;;13.34;66.83;97220.91;6258020;23;20027;-81
2022/05/10 02:48:14;;;;;;;12.07;10.82;;;;;;;13.33;66.95;97216.66;6258496;23;20036;-81
2022/05/10 02:50:42;;;;;;;12.73;11.40;;;;;;;13.34;66.96;97214.88;6258606;23;20107;-81
2022/05/10 02:53:10;;;;;;;11.93;10.65;;;;;;;13.35;66.95;97208.63;6257476;23;20340;-81
2022/05/10 02:55:42;;;;;;;14.43;10.75;;;;;;;13.35;67.33;97216.47;6255753;23;20032;-81
2022/05/10 02:58:14;;;;;;;12.18;10.68;;;;;;;13.35;67.11;97208.63;6256125;23;20064;-80
2022/05/10 03:00:43;;;;;;;11.65;10.55;;;;;;;13.35;67.04;97212.06;6254805;23;20091;-81
2022/05/10 03:03:19;;;;;;;12.68;11.40;;;;;;;13.33;67.32;97206.19;6257478;23;20098;-81
2022/05/10 03:05:46;;;;;;;13.02;11.77;;;;;;;13.33;66.93;97202.75;6257228;23;20103;-80
2022/05/10 03:08:14;;;;;;;12.63;11.32;;;;;;;13.32;67.11;97209.00;6256479;23;20409;-81
2022/05/10 03:10:41;;;;;;;18.38;12.07;;;;;;;13.33;67.17;97208.81;6255423;23;20099;-81
2022/05/10 03:13:09;;;;;;;12.73;11.52;;;;;;;13.34;67.22;97204.41;6259374;23;20019;-81
2022/05/10 03:15:36;;;;;;;13.35;11.27;;;;;;;13.33;67.21;97203.56;6265292;23;20087;-81
2022/05/10 03:18:06;;;;;;;12.73;11.43;;;;;;;13.36;67.19;97205.03;6260438;23;20020;-81
2022/05/10 03:20:33;;;;;;;11.23;10.13;;;;;;;13.38;67.14;97206.47;6260755;23;20404;-81
2022/05/10 03:23:01;;;;;;;12.00;10.80;;;;;;;13.44;66.85;97209.31;6257477;23;20076;-81
2022/05/10 03:25:31;;;;;;;12.27;10.75;;;;;;;13.44;66.93;97204.09;6264795;23;20067;-81
2022/05/10 03:27:59;;;;;;;12.40;11.07;;;;;;;13.49;66.84;97207.78;6265863;23;20041;-81
2022/05/10 03:30:27;;;;;;;12.57;11.27;;;;;;;13.49;66.58;97202.53;6265378;23;20047;-81
2022/05/10 03:32:56;;;;;;;12.25;11.05;;;;;;;13.48;66.49;97200.91;6264693;23;20052;-81
2022/05/10 03:35:27;;;;;;;11.90;10.77;;;;;;;13.47;66.87;97201.91;6263230;23;20063;-80
2022/05/10 03:37:55;;;;;;;14.73;11.80;;;;;;;13.47;66.47;97199.28;6261774;23;20072;-81
2022/05/10 03:40:23;;;;;;;12.15;11.05;;;;;;;13.46;66.47;97200.28;6265556;23;20027;-81
2022/05/10 03:42:53;;;;;;;16.55;11.30;;;;;;;13.44;66.52;97204.88;6261535;23;20389;-81
2022/05/10 03:45:22;;;;;;;14.00;11.70;;;;;;;13.44;66.55;97204.88;6262079;23;20091;-81
2022/05/10 03:47:51;;;;;;;11.45;10.30;;;;;;;13.44;66.71;97198.84;6259889;23;20080;-81
2022/05/10 03:50:23;;;;;;;11.73;10.57;;;;;;;13.46;66.63;97200.28;6260558;23;20027;-81
2022/05/10 03:52:52;;;;;;;11.88;10.68;;;;;;;13.47;66.38;97201.91;6262257;23;20407;-81
2022/05/10 03:55:23;;;;;;;11.32;10.23;;;;;;;13.45;66.47;97198.66;6261389;23;20016;-81
2022/05/10 03:57:52;;;;;;;12.98;10.75;;;;;;;13.40;66.56;97198.38;6254075;23;20020;-80
2022/05/10 04:00:23;;;;;;;12.85;11.50;;;;;;;13.34;66.58;97199.97;6253106;23;20048;-80
2022/05/10 04:02:51;;;;;;;13.98;9.35;;;;;;;13.32;66.73;97198.53;6250109;23;20404;-80
2022/05/10 04:05:20;;;;;;;12.32;10.98;;;;;;;13.30;66.83;97197.91;6249297;23;20012;-81
2022/05/10 04:07:48;;;;;;;11.85;10.70;;;;;;;13.28;66.65;97202.47;6262540;22;20080;-80
2022/05/10 04:10:18;;;;;;;12.35;11.05;;;;;;;13.27;67.03;97203.44;6265978;23;20020;-81
2022/05/10 04:12:46;;;;;;;13.70;11.60;;;;;;;13.22;67.00;97200.56;6265108;23;20043;-81
2022/05/10 04:15:17;;;;;;;12.38;11.07;;;;;;;13.22;67.18;97195.34;6254137;23;20024;-80
2022/05/10 04:17:46;;;;;;;11.60;10.40;;;;;;;13.22;67.70;97195.34;6254999;23;20103;-81
2022/05/10 04:20:15;;;;;;;11.45;10.35;;;;;;;13.24;67.16;97196.78;6255368;23;20023;-79
2022/05/10 04:22:43;;;;;;;13.32;10.77;;;;;;;13.26;66.81;97193.97;6246786;23;20099;-78
2022/05/10 04:25:16;;;;;;;11.57;10.43;;;;;;;13.26;67.21;97191.38;6247879;23;20397;-78
2022/05/10 04:27:45;;;;;;;15.00;11.00;;;;;;;13.28;67.03;97186.75;6246615;23;20356;-78
2022/05/10 04:30:15;;;;;;;11.68;10.60;;;;;;;13.28;67.26;97192.00;6256501;22;20016;-82
2022/05/10 04:32:43;;;;;;;11.45;10.38;;;;;;;13.27;67.03;97183.31;6268561;22;20360;-79
2022/05/10 04:35:12;;;;;;;12.27;11.07;;;;;;;13.26;67.23;97189.53;6306853;22;20405;-78
2022/05/10 04:37:40;;;;;;;13.85;10.95;;;;;;;13.29;67.16;97196.25;6310509;22;20023;-80
2022/05/10 04:42:57;;;;;;;12.43;10.65;;;;;;;13.34;67.33;97193.91;6281149;22;20099;-80
2022/05/10 04:45:24;;;;;;;11.82;10.63;;;;;;;13.39;67.11;97199.41;6277655;22;20034;-80
2022/05/10 04:47:52;;;;;;;11.27;9.80;;;;;;;13.42;66.97;97196.41;6276438;22;20529;-79
2022/05/10 04:50:20;;;;;;;10.15;9.07;;;;;;;13.47;67.67;97206.31;6263985;22;20026;-79
2022/05/10 04:52:47;;;;;;;13.90;11.20;;;;;;;13.52;67.06;97196.91;6274747;22;20026;-80
2022/05/10 04:55:15;;;;;;;11.70;9.90;;;;;;;13.57;66.77;97207.66;6274949;22;20031;-80
2022/05/10 04:57:43;;;;;;;14.13;10.90;;;;;;;13.59;66.67;97212.72;6276393;22;20094;-79
2022/05/10 05:00:15;;;;;;;13.85;11.27;;;;;;;13.60;66.70;97219.59;6283267;22;20058;-84
2022/05/10 05:02:43;;;;;;;11.13;10.03;;;;;;;13.65;66.45;97216.41;6325228;22;20074;-82
2022/05/10 05:05:12;;;;;;;12.02;10.77;;;;;;;13.70;66.87;97214.03;6324937;22;20267;-83
2022/05/10 05:07:40;;;;;;;13.13;10.77;;;;;;;13.75;66.40;97217.75;6324648;22;20359;-81
2022/05/10 05:10:09;;;;;;;11.63;10.25;;;;;;;13.81;68.38;97221.41;6316713;22;20019;-84
2022/05/10 05:12:37;;;;;;;13.07;11.63;;;;;;;13.88;68.49;97222.28;6292178;22;20023;-85
2022/05/10 05:15:08;;;;;;;13.98;10.90;;;;;;;13.91;67.12;97226.38;6294857;22;20039;-85
2022/05/10 05:17:38;;;;;;;12.13;10.25;;;;;;;13.93;66.51;97225.16;6292610;22;20019;-84
2022/05/10 05:20:07;;;;;;;12.05;10.85;;;;;;;13.97;67.01;97225.59;6293317;22;20022;-83
2022/05/10 05:22:35;;;;;;;12.93;11.02;;;;;;;13.99;66.49;97228.84;6292750;22;20055;-82
2022/05/10 05:25:03;;;;;;;17.95;12.15;;;;;;;14.04;66.45;97226.47;6291196;22;20027;-85
2022/05/10 05:27:32;;;;;;;15.77;11.93;;;;;;;14.06;66.12;97234.13;6289880;22;20023;-87
2022/05/10 05:29:59;;;;;;;17.98;11.40;;;;;;;14.08;66.38;97232.16;6290533;22;20035;-81
2022/05/10 05:32:31;;;;;;;15.38;11.60;;;;;;;14.09;66.40;97229.34;6292915;22;20022;-82
2022/05/10 05:35:01;;;;;;;14.82;10.77;;;;;;;14.13;66.56;97224.53;6293055;22;20267;-82
2022/05/10 05:37:34;;;;;;;15.35;10.38;;;;;;;14.16;65.97;97227.56;6290762;22;20103;-79
2022/05/10 05:40:05;;;;;;;11.80;9.65;;;;;;;14.21;66.26;97227.00;6292236;22;20023;-83
2022/05/10 05:42:33;;;;;;;21.15;10.48;;;;;;;14.26;66.08;97229.91;6291253;22;20103;-80
2022/05/10 05:45:01;;;;;;;12.23;9.50;;;;;;;14.30;66.52;97225.91;6290670;22;20019;-83
2022/05/10 05:47:30;;;;;;;10.68;9.57;;;;;;;14.36;66.82;97230.38;6291691;22;20019;-88
2022/05/10 05:49:58;;;;;;;10.20;9.20;;;;;;;14.43;66.88;97230.44;6290165;22;20023;-84
2022/05/10 05:52:27;;;;;;;10.18;9.15;;;;;;;14.51;67.89;97226.84;6289983;22;20026;-85
2022/05/10 05:54:54;;;;;;;10.73;9.60;;;;;;;14.59;67.93;97224.13;6289307;22;20024;-82
2022/05/10 05:57:23;;;;;;;13.82;10.00;;;;;;;14.66;68.04;97218.91;6288045;22;20075;-80
2022/05/10 05:59:53;;;;;;;11.45;10.20;;;;;;;14.71;66.76;97217.31;6288417;22;20332;-81
2022/05/10 06:02:23;;;;;;;11.07;9.23;;;;;;;14.75;66.48;97217.75;6287903;22;20035;-80
2022/05/10 06:04:51;;;;;;;10.77;8.80;;;;;;;14.80;66.70;97216.19;6287812;22;20436;-83
2022/05/10 06:07:20;;;;;;;10.23;9.00;;;;;;;14.87;67.07;97210.13;6287520;22;20091;-82
2022/05/10 06:09:49;;;;;;;12.20;9.60;;;;;;;14.93;67.01;97215.41;6292472;22;20016;-83
2022/05/10 06:12:19;;;;;;;9.90;8.90;;;;;;;15.01;68.46;97211.84;6293394;22;20447;-83
2022/05/10 06:14:47;;;;;;;12.88;11.07;;;;;;;15.07;67.58;97211.06;6294758;22;20020;-87
2022/05/10 06:17:15;;;;;;;13.38;10.48;;;;;;;15.12;67.39;97208.66;6294544;22;20059;-86
2022/05/10 06:19:44;;;;;;;12.63;10.77;;;;;;;15.20;67.41;97210.31;6294327;22;20035;-84
2022/05/10 06:22:12;;;;;;;17.95;11.70;;;;;;;15.26;66.90;97209.50;6294166;22;20127;-85
2022/05/10 06:24:40;;;;;;;15.18;10.38;;;;;;;15.30;66.98;97204.69;6292956;22;20031;-85
2022/05/10 06:27:14;;;;;;;15.75;10.35;;;;;;;15.37;66.19;97211.59;6291238;22;20047;-81
2022/05/10 06:29:42;;;;;;;12.68;9.88;;;;;;;15.44;65.91;97204.53;6294055;22;20495;-84
2022/05/10 06:32:11;;;;;;;10.57;8.63;;;;;;;15.55;65.11;97203.16;6292889;22;20041;-86
2022/05/10 06:34:40;;;;;;;8.82;7.95;;;;;;;15.65;65.16;97206.22;6291540;22;20023;-80
2022/05/10 06:38:16;;;;;;;11.27;7.70;;;;;;;15.75;64.78;97207.69;6290088;22;20280;-81
2022/05/10 06:40:09;;;;;;;11.43;8.02;;;;;;;15.86;64.62;97207.09;6294077;22;20071;-83
2022/05/10 06:42:38;;;;;;;12.02;7.90;;;;;;;15.97;64.14;97211.75;6293879;22;20076;-82
2022/05/10 06:45:10;;;;;;;9.57;8.10;;;;;;;16.08;63.68;97212.97;6293880;22;20058;-83
2022/05/10 06:47:38;;;;;;;11.57;7.82;;;;;;;16.19;63.78;97209.75;6291397;22;20067;-81
2022/05/10 06:50:09;;;;;;;8.48;7.57;;;;;;;16.31;63.20;97217.84;6291001;22;20044;-84
2022/05/10 06:52:37;;;;;;;7.80;7.00;;;;;;;16.42;63.30;97214.59;6291111;22;20027;-85
2022/05/10 06:55:06;;;;;;;7.85;7.05;;;;;;;16.55;63.27;97218.22;6290092;22;20026;-82
2022/05/10 06:57:34;;;;;;;13.38;7.90;;;;;;;16.67;62.83;97219.22;6289819;22;20016;-83
2022/05/10 07:00:05;;;;;;;8.88;7.95;;;;;;;16.77;62.74;97217.00;6290967;22;20072;-83
2022/05/10 07:02:33;;;;;;;8.20;7.38;;;;;;;16.87;62.39;97213.94;6290357;22;20020;-83
2022/05/10 07:05:01;;;;;;;10.93;7.78;;;;;;;16.97;61.88;97211.72;6290500;22;20355;-81
2022/05/10 07:07:29;;;;;;;7.97;7.15;;;;;;;17.09;61.26;97212.66;6288961;22;20020;-85
2022/05/10 07:09:57;;;;;;;8.30;7.43;;;;;;;17.23;61.44;97216.09;6290735;22;20067;-80
2022/05/10 07:12:24;;;;;;;8.52;7.70;;;;;;;17.35;60.68;97212.78;6292354;22;20041;-81
2022/05/10 07:14:52;;;;;;;8.65;7.53;;;;;;;17.47;60.96;97216.38;6295042;22;20046;-87
2022/05/10 07:17:21;;;;;;;8.27;7.45;;;;;;;17.58;60.29;97213.09;6297150;22;20344;-85
2022/05/10 07:19:49;;;;;;;8.30;7.28;;;;;;;17.69;59.39;97215.03;6297768;22;20027;-86
2022/05/10 07:22:16;;;;;;;10.02;7.30;;;;;;;17.81;59.55;97217.00;6298051;22;20359;-85
2022/05/10 07:24:44;;;;;;;11.65;8.10;;;;;;;17.93;59.08;97212.72;6296562;22;20051;-83
2022/05/10 07:27:11;;;;;;;11.77;6.97;;;;;;;18.05;58.51;97210.97;6295873;22;20023;-82
2022/05/10 07:29:39;;;;;;;15.50;7.88;;;;;;;18.17;58.33;97218.22;6294816;22;20019;-86
2022/05/10 07:32:09;;;;;;;8.68;7.30;;;;;;;18.29;58.75;97216.50;6293459;22;20094;-82
2022/05/10 07:34:37;;;;;;;18.33;7.85;;;;;;;18.39;57.85;97214.19;6293562;22;20094;-84
2022/05/10 07:37:05;;;;;;;8.32;6.93;;;;;;;18.49;57.35;97217.13;6292283;22;20031;-84
2022/05/10 07:39:33;;;;;;;10.07;6.90;;;;;;;18.61;57.80;97216.44;6292289;22;20030;-83
2022/05/10 07:42:03;;;;;;;8.60;7.70;;;;;;;18.73;57.57;97212.03;6291968;22;20022;-84
2022/05/10 07:44:31;;;;;;;9.30;7.00;;;;;;;18.85;56.84;97207.69;6291402;22;20460;-81
2022/05/10 07:46:59;;;;;;;7.18;6.57;;;;;;;18.99;56.12;97215.47;6289808;22;20042;-81
2022/05/10 07:49:27;;;;;;;7.45;6.40;;;;;;;19.11;55.93;97213.69;6289590;22;20031;-84
2022/05/10 07:51:56;;;;;;;10.15;7.10;;;;;;;19.21;55.13;97210.53;6288954;22;20012;-84
2022/05/10 07:54:24;;;;;;;15.27;6.68;;;;;;;19.29;55.01;97203.13;6289859;22;20094;-80
2022/05/10 07:56:52;;;;;;;13.10;6.72;;;;;;;19.37;54.42;97204.63;6287448;22;20106;-80
2022/05/10 07:59:19;;;;;;;8.43;6.80;;;;;;;19.46;53.63;97205.13;6288695;22;20012;-83
2022/05/10 08:01:47;;;;;;;8.93;6.13;;;;;;;19.53;53.39;97203.22;6287294;22;20055;-81
2022/05/10 08:04:15;;;;;;;8.02;6.28;;;;;;;19.63;53.15;97211.41;6288145;22;20023;-82
2022/05/10 08:06:43;;;;;;;7.13;6.43;;;;;;;19.73;53.14;97208.28;6287038;22;20024;-82
2022/05/10 08:09:11;;;;;;;6.88;6.25;;;;;;;19.85;52.15;97205.66;6286751;22;20042;-80
2022/05/10 08:11:39;;;;;;;6.82;6.13;;;;;;;19.92;51.99;97203.75;6285613;22;20099;-86
2022/05/10 08:14:07;;;;;;;6.20;5.60;;;;;;;19.98;51.65;97202.81;6298212;22;20050;-87
2022/05/10 08:16:34;;;;;;;11.23;6.78;;;;;;;20.07;52.41;97208.59;6296877;22;20023;-87
2022/05/10 08:19:02;;;;;;;5.45;5.05;;;;;;;20.15;51.14;97206.41;6295546;22;20020;-85
2022/05/10 08:21:30;;;;;;;6.22;5.63;;;;;;;20.21;49.10;97207.34;6294077;22;20050;-84
2022/05/10 08:23:57;;;;;;;6.60;5.65;;;;;;;20.29;49.09;97203.56;6294485;22;20047;-82
2022/05/10 08:26:26;;;;;;;6.55;5.53;;;;;;;20.38;48.90;97199.56;6294545;22;20030;-86
2022/05/10 08:28:54;;;;;;;7.88;5.32;;;;;;;20.47;48.12;97203.47;6294245;22;20071;-82
2022/05/10 08:31:25;;;;;;;6.82;5.70;;;;;;;20.59;47.85;97206.13;6294474;22;20024;-83
2022/05/10 08:33:53;;;;;;;6.68;5.70;;;;;;;20.69;47.89;97206.38;6294264;22;20023;-83
2022/05/10 08:36:20;;;;;;;5.82;5.32;;;;;;;20.77;48.51;97197.25;6292892;22;20020;-82
2022/05/10 08:38:48;;;;;;;6.80;6.10;;;;;;;20.87;47.16;97196.69;6294208;22;20080;-83
2022/05/10 08:41:22;;;;;;;7.03;5.63;;;;;;;20.99;46.22;97194.81;6293161;22;20058;-82
2022/05/10 08:43:55;;;;;;;6.07;5.53;;;;;;;21.10;45.93;97201.94;6294116;22;20067;-81
2022/05/10 08:46:29;;;;;;;5.05;4.53;;;;;;;21.22;45.79;97199.25;6293739;22;20019;-81
2022/05/10 08:49:02;;;;;;;5.63;4.97;;;;;;;21.34;47.10;97196.56;6294614;22;20026;-83
2022/05/10 08:51:31;;;;;;;5.90;4.50;;;;;;;21.46;45.22;97197.34;6294470;22;20019;-84
2022/05/10 08:53:59;;;;;;;5.35;4.47;;;;;;;21.57;45.21;97195.69;6293529;22;20024;-81
2022/05/10 08:56:31;;;;;;;7.55;4.40;;;;;;;21.66;43.96;97188.97;6291952;22;20035;-85
2022/05/10 08:59:10;;;;;;;4.93;4.43;;;;;;;21.76;43.88;97189.16;6292834;22;20353;-83
2022/05/10 09:01:50;;;;;;;5.10;4.60;;;;;;;21.81;42.69;97189.22;6291567;22;20086;-82
2022/05/10 09:04:34;;;;;;;4.05;3.75;;;;;;;21.87;41.59;97189.34;6291836;22;20057;-81
2022/05/10 09:07:13;;;;;;;5.20;3.63;;;;;;;21.93;40.17;97193.66;6291281;22;20094;-81
2022/05/10 09:09:51;;;;;;;4.55;4.13;;;;;;;21.99;42.03;97184.75;6291254;22;20016;-80
2022/05/10 09:12:21;;;;;;;7.55;4.15;;;;;;;22.07;42.11;97179.03;6290768;22;20050;-80
2022/05/10 09:14:56;;;;;;;5.57;3.88;;;;;;;22.15;41.67;97183.97;6290817;22;20020;-80
2022/05/10 09:17:29;;;;;;;5.20;4.70;;;;;;;22.26;41.10;97178.81;6290320;22;20046;-83
2022/05/10 09:19:58;;;;;;;4.78;4.25;;;;;;;22.33;39.86;97176.81;6290381;22;20066;-81
2022/05/10 09:23:05;;;;;;;5.38;3.60;;;;;;;22.46;38.02;97179.16;6289493;22;20020;-81
2022/05/10 09:25:36;;;;;;;4.20;3.85;;;;;;;22.59;38.06;97178.81;6289173;22;20055;-81
2022/05/10 09:28:11;;;;;;;6.68;3.75;;;;;;;22.68;38.09;97176.53;6288970;22;20073;-81
2022/05/10 09:34:45;;;;;;;4.07;3.65;;;;;;;22.78;39.41;97175.84;6288786;22;20106;-80
2022/05/10 09:36:26;;;;;;;4.38;3.97;;;;;;;22.94;38.16;97174.22;6287742;22;20047;-81
2022/05/10 09:39:01;;;;;;;3.85;3.55;;;;;;;23.00;37.22;97171.41;6289659;22;20023;-82
2022/05/10 09:41:34;;;;;;;9.18;5.93;;;;;;;23.08;36.73;97172.81;6288935;22;20030;-82
2022/05/10 09:44:19;;;;;;;5.50;5.00;;;;;;;23.18;37.05;97172.16;6290319;22;20472;-82
2022/05/10 09:46:49;;;;;;;4.13;3.33;;;;;;;23.23;35.65;97166.88;6285602;22;20047;-81
2022/05/10 09:49:34;;;;;;;5.25;3.30;;;;;;;23.31;36.11;97171.75;6287173;22;20020;-80
2022/05/10 09:52:02;;;;;;;4.97;3.03;;;;;;;23.41;36.99;97165.72;6286681;22;20031;-83
2022/05/10 09:54:37;;;;;;;4.35;3.42;;;;;;;23.50;35.75;97164.22;6286069;22;20502;-80
2022/05/10 09:57:06;;;;;;;5.22;3.42;;;;;;;23.57;36.12;97161.34;6286760;22;20012;-81
2022/05/10 09:59:41;;;;;;;6.10;3.47;;;;;;;23.63;36.28;97152.38;6287372;22;20039;-81
2022/05/10 10:02:10;;;;;;;4.80;4.28;;;;;;;23.69;37.47;97162.03;6285628;22;20097;-82
2022/05/10 10:04:40;;;;;;;3.83;3.53;;;;;;;23.78;37.91;97165.84;6286434;22;20019;-81
2022/05/10 10:07:13;;;;;;;5.78;4.25;;;;;;;23.83;36.13;97157.09;6286541;22;20023;-81
2022/05/10 10:09:43;;;;;;;5.28;3.13;;;;;;;23.87;36.33;97160.06;6285784;22;20015;-83
2022/05/10 10:12:16;;;;;;;5.13;4.00;;;;;;;23.89;36.78;97157.97;6286036;22;20039;-83
2022/05/10 10:14:46;;;;;;;4.68;4.15;;;;;;;23.94;37.15;97158.00;6293518;22;20042;-85
2022/05/10 10:17:27;;;;;;;4.35;3.95;;;;;;;23.99;36.86;97152.72;6296569;22;20054;-84
2022/05/10 10:20:01;;;;;;;4.28;3.90;;;;;;;24.05;36.41;97152.53;6297810;22;20027;-87
2022/05/10 10:22:37;;;;;;;4.18;3.88;;;;;;;24.09;36.34;97158.13;6296334;22;20028;-85
2022/05/10 10:25:10;;;;;;;4.13;3.75;;;;;;;24.12;36.32;97154.13;6296523;22;20067;-86
2022/05/10 10:27:42;;;;;;;3.85;3.55;;;;;;;24.13;35.80;97145.91;6295360;22;20063;-84
2022/05/10 10:30:21;;;;;;;3.70;3.40;;;;;;;24.13;35.29;97156.56;6296522;22;20043;-84
2022/05/10 10:32:55;;;;;;;5.70;4.95;;;;;;;24.12;35.30;97144.31;6296581;22;20020;-86
2022/05/10 10:35:32;;;;;;;11.40;8.60;;;;;;;24.17;36.39;97147.00;6296500;22;20026;-84
2022/05/10 10:38:08;;;;;;;3.88;3.50;;;;;;;24.20;35.48;97141.13;6294316;22;20456;-85
2022/05/10 10:40:39;;;;;;;5.55;3.70;;;;;;;24.25;35.18;97135.88;6296140;22;20016;-84
2022/05/10 10:43:11;;;;;;;3.65;3.42;;;;;;;24.30;35.61;97139.63;6294497;22;20015;-85
2022/05/10 10:45:42;;;;;;;3.33;3.03;;;;;;;24.31;34.47;97133.22;6293763;22;20024;-83
2022/05/10 10:48:27;;;;;;;3.63;3.33;;;;;;;24.33;34.87;97134.56;6293703;22;20024;-84
2022/05/10 10:50:55;;;;;;;3.55;2.72;;;;;;;24.37;34.98;97137.53;6293790;22;20047;-82
2022/05/10 10:53:25;;;;;;;6.25;3.53;;;;;;;24.41;35.03;97135.97;6291377;22;20067;-83
2022/05/10 10:56:03;;;;;;;5.00;3.53;;;;;;;24.45;34.06;97126.41;6291283;22;20035;-85
2022/05/10 10:58:39;;;;;;;3.65;3.20;;;;;;;24.51;34.23;97125.41;6291486;22;20047;-83
2022/05/10 11:01:28;;;;;;;3.78;3.47;;;;;;;24.55;34.40;97126.47;6303060;22;20092;-79
2022/05/10 11:12:38;;;;;;;3.40;3.08;;;;;;;24.75;33.87;97106.28;6312807;22;20022;-78
2022/05/10 11:15:34;;;;;;;5.95;3.55;;;;;;;24.83;33.97;97111.94;6285389;22;20008;-79
2022/05/10 11:29:43;;;;;;;5.90;3.47;;;;;;;24.97;34.54;97101.59;6298589;22;20007;-81
2022/05/10 11:36:00;;;;;;;3.47;3.17;;;;;;;24.98;33.45;97103.19;6272787;22;20022;-79
2022/05/10 11:39:12;;;;;;;5.78;3.47;;;;;;;24.99;33.15;97099.47;6275067;22;20007;-80
2022/05/10 11:41:56;;;;;;;3.00;2.80;;;;;;;24.99;32.27;97094.13;6275161;22;20047;-80
2022/05/10 11:45:04;;;;;;;6.13;3.03;;;;;;;25.00;32.67;97085.03;6275082;22;20007;-79
2022/05/10 11:48:04;;;;;;;8.68;3.53;;;;;;;25.05;32.59;97082.38;6273578;23;20021;-79
2022/05/10 11:54:36;;;;;;;25.55;6.43;;;;;;;25.08;33.98;97083.75;6274431;22;20024;-79
2022/05/10 11:57:25;;;;;;;6.68;3.85;;;;;;;25.13;32.68;97066.94;6273664;22;20056;-79
2022/05/10 12:05:41;;;;;;;8.73;3.00;;;;;;;25.20;32.56;97062.16;6273832;22;20004;-79
2022/05/10 12:08:41;;;;;;;18.95;4.80;;;;;;;25.24;32.91;97063.25;6274764;22;20027;-79
2022/05/10 12:11:45;;;;;;;6.20;3.63;;;;;;;25.26;32.83;97061.13;6274658;22;20060;-78
2022/05/10 12:21:23;;;;;;;3.22;2.97;;;;;;;25.36;33.21;97049.63;6255024;22;20001;-80
2022/05/10 12:24:30;;;;;;;4.40;3.42;;;;;;;25.37;32.22;97045.91;6274422;23;20008;-80
2022/05/10 12:33:00;;;;;;;4.38;2.58;;;;;;;25.37;31.78;97046.69;6244260;22;20027;-79
2022/05/10 12:36:31;;;;;;;3.50;2.53;;;;;;;25.38;32.21;97037.59;6243690;23;20017;-80
2022/05/10 12:39:37;;;;;;;4.43;3.45;;;;;;;25.38;32.33;97034.94;6243153;22;20008;-80
2022/05/10 12:42:24;;;;;;;3.92;3.15;;;;;;;25.39;32.24;97028.53;6244794;22;20004;-79